Time;durP1;ratioP1;P1;durP2;ratioP2;P2;SDS_P1;SDS_P2;PMS_P1;PMS_P2;Temp;Humidity;BMP_temperature;BMP_pressure;BME280_temperature;BME280_humidity;BME280_pressure;Samples;Min_cycle;Max_cycle;Signal;HPM_P1;HPM_P2
2021/09/30 00:01:22;;;;;;;0.50;0.20;;;11.80;99.90;;;;;;5074761;28;20431;-55
2021/09/30 00:03:50;;;;;;;0.40;0.20;;;11.80;99.90;;;;;;5074905;28;20509;-55
2021/09/30 00:06:21;;;;;;;0.40;0.20;;;11.70;99.90;;;;;;5073919;28;20411;-55
2021/09/30 00:08:53;;;;;;;0.70;0.20;;;11.60;99.90;;;;;;5073471;28;20430;-56
2021/09/30 00:11:28;;;;;;;0.50;0.20;;;11.50;99.90;;;;;;5073607;28;20424;-54
2021/09/30 00:14:00;;;;;;;0.70;0.20;;;11.50;99.90;;;;;;5071088;28;20412;-56
2021/09/30 00:16:51;;;;;;;0.80;0.20;;;11.70;99.90;;;;;;5072487;28;20542;-55
2021/09/30 00:33:32;;;;;;;0.30;0.20;;;13.10;99.90;;;;;;5073515;28;20442;-57
2021/09/30 00:36:09;;;;;;;0.70;0.20;;;13.30;99.90;;;;;;5073977;28;20520;-57
2021/09/30 00:47:07;;;;;;;0.47;0.20;;;13.60;99.90;;;;;;5074112;28;20996;-55
2021/09/30 00:49:45;;;;;;;0.30;0.20;;;13.40;99.90;;;;;;5074914;28;20473;-54
2021/09/30 00:52:17;;;;;;;0.50;0.20;;;13.40;99.90;;;;;;5075191;28;20480;-57
2021/09/30 01:52:26;;;;;;;0.40;0.20;;;11.70;99.90;;;;;;5037998;28;20426;-55
2021/09/30 02:20:22;;;;;;;0.40;0.20;;;12.10;99.90;;;;;;5077536;28;20830;-57
2021/09/30 02:25:47;;;;;;;0.30;0.10;;;11.70;99.90;;;;;;5073070;28;20795;-57
2021/09/30 02:31:33;;;;;;;0.40;0.20;;;11.60;99.90;;;;;;5073687;28;20664;-57
2021/09/30 02:40:07;;;;;;;1.00;0.20;;;12.00;99.90;;;;;;5077063;28;20510;-57
2021/09/30 02:59:27;;;;;;;0.70;0.20;;;12.20;99.90;;;;;;5074374;28;20996;-58
2021/09/30 03:01:57;;;;;;;0.30;0.20;;;11.90;99.90;;;;;;5074319;28;20435;-58
2021/09/30 03:04:25;;;;;;;0.40;0.20;;;12.20;99.90;;;;;;5074554;28;20477;-58
2021/09/30 03:06:55;;;;;;;0.80;0.30;;;12.20;99.90;;;;;;5074590;28;20484;-54
2021/09/30 03:09:30;;;;;;;0.65;0.30;;;12.40;99.90;;;;;;5073516;28;20663;-58
2021/09/30 03:12:00;;;;;;;0.50;0.20;;;12.40;99.90;;;;;;5074205;28;20669;-58
2021/09/30 03:14:27;;;;;;;0.80;0.20;;;12.30;99.90;;;;;;5074466;28;20470;-62
2021/09/30 03:17:02;;;;;;;0.40;0.28;;;12.00;99.90;;;;;;5074052;28;20424;-57
2021/09/30 03:19:49;;;;;;;0.80;0.20;;;12.00;99.90;;;;;;5072650;28;20872;-58
2021/09/30 03:22:17;;;;;;;0.55;0.20;;;12.20;99.90;;;;;;5073036;28;20846;-58
2021/09/30 03:24:49;;;;;;;1.33;0.20;;;12.20;99.90;;;;;;5071706;28;20427;-58
2021/09/30 03:27:17;;;;;;;0.40;0.20;;;12.30;99.90;;;;;;5073833;28;20497;-58
2021/09/30 03:29:46;;;;;;;0.60;0.20;;;12.30;99.90;;;;;;5073891;28;20427;-57
2021/09/30 03:32:14;;;;;;;0.40;0.20;;;12.30;99.90;;;;;;5074480;28;20469;-59
2021/09/30 03:34:41;;;;;;;0.40;0.20;;;12.00;99.90;;;;;;5075576;28;20427;-56
2021/09/30 03:37:09;;;;;;;0.40;0.20;;;11.90;99.90;;;;;;5075845;28;20461;-57
2021/09/30 03:39:36;;;;;;;0.60;0.20;;;12.00;99.90;;;;;;5075464;28;20411;-57
2021/09/30 03:42:06;;;;;;;0.52;0.20;;;11.90;99.90;;;;;;5075757;28;20446;-58
2021/09/30 03:44:33;;;;;;;0.40;0.20;;;12.20;99.90;;;;;;5074314;28;20435;-59
2021/09/30 03:47:00;;;;;;;0.40;0.20;;;12.30;99.90;;;;;;5074090;28;20435;-59
2021/09/30 03:49:30;;;;;;;0.80;0.20;;;12.20;99.90;;;;;;5075263;28;20416;-58
2021/09/30 03:52:03;;;;;;;0.70;0.30;;;12.30;99.90;;;;;;5075442;28;20435;-58
2021/09/30 03:54:40;;;;;;;1.13;0.40;;;12.30;99.90;;;;;;5075710;28;20477;-58
2021/09/30 03:57:21;;;;;;;0.82;0.40;;;12.10;99.90;;;;;;5075538;28;20483;-55
2021/09/30 03:59:48;;;;;;;0.97;0.40;;;12.10;99.90;;;;;;5073926;28;20547;-58
2021/09/30 04:02:16;;;;;;;0.60;0.30;;;11.90;99.90;;;;;;5074059;28;20912;-58
2021/09/30 04:04:43;;;;;;;0.60;0.20;;;11.90;99.90;;;;;;5074121;28;20440;-58
2021/09/30 04:07:11;;;;;;;0.52;0.30;;;12.00;99.90;;;;;;5074881;28;20708;-55
2021/09/30 04:09:40;;;;;;;0.40;0.20;;;11.80;99.90;;;;;;5075521;28;20419;-57
2021/09/30 04:12:12;;;;;;;0.60;0.30;;;11.80;99.90;;;;;;5074667;28;20842;-57
2021/09/30 04:14:40;;;;;;;0.50;0.30;;;12.00;99.90;;;;;;5074995;28;20462;-57
2021/09/30 04:17:08;;;;;;;0.50;0.20;;;11.90;99.90;;;;;;5075226;28;20497;-58
2021/09/30 04:19:35;;;;;;;0.40;0.20;;;12.00;99.90;;;;;;5073749;28;20423;-57
2021/09/30 04:22:03;;;;;;;0.65;0.20;;;12.00;99.90;;;;;;5073681;28;20431;-57
2021/09/30 04:24:30;;;;;;;0.40;0.20;;;11.90;99.90;;;;;;5072237;28;20450;-57
2021/09/30 04:26:58;;;;;;;1.60;0.27;;;12.00;99.90;;;;;;5074809;28;20774;-58
2021/09/30 04:29:27;;;;;;;0.85;0.20;;;11.90;99.90;;;;;;5074299;28;20866;-55
2021/09/30 04:31:55;;;;;;;0.73;0.20;;;11.50;99.90;;;;;;5075278;28;20782;-58
2021/09/30 04:34:22;;;;;;;0.40;0.20;;;11.00;99.90;;;;;;5074291;28;20480;-57
2021/09/30 04:36:50;;;;;;;0.40;0.20;;;10.60;99.90;;;;;;5074016;28;20496;-57
2021/09/30 04:39:18;;;;;;;0.50;0.30;;;10.10;99.90;;;;;;5072983;28;20450;-57
2021/09/30 04:41:45;;;;;;;0.60;0.30;;;9.90;99.90;;;;;;5071663;28;20488;-58
2021/09/30 04:44:13;;;;;;;0.50;0.30;;;9.90;99.90;;;;;;5073635;28;20420;-59
2021/09/30 04:46:43;;;;;;;0.67;0.30;;;9.80;99.90;;;;;;5073577;28;20485;-56
2021/09/30 04:49:10;;;;;;;0.57;0.30;;;9.70;99.90;;;;;;5074125;28;20429;-57
2021/09/30 04:51:37;;;;;;;0.60;0.28;;;9.60;99.90;;;;;;5074871;28;20461;-57
2021/09/30 04:54:06;;;;;;;0.57;0.20;;;9.70;99.90;;;;;;5074754;28;20912;-58
2021/09/30 04:56:34;;;;;;;0.80;0.20;;;9.70;99.90;;;;;;5074666;28;20427;-57
2021/09/30 04:59:03;;;;;;;1.20;0.20;;;9.60;99.90;;;;;;5075745;28;20415;-56
2021/09/30 05:01:30;;;;;;;0.40;0.30;;;9.50;99.90;;;;;;5074240;28;20747;-56
2021/09/30 05:03:59;;;;;;;0.40;0.20;;;9.50;99.90;;;;;;5074545;28;20423;-53
2021/09/30 05:06:27;;;;;;;1.80;0.40;;;9.40;99.90;;;;;;5074744;28;20435;-55
2021/09/30 05:08:57;;;;;;;0.80;0.28;;;9.30;99.90;;;;;;5074354;28;20415;-58
2021/09/30 05:11:32;;;;;;;0.60;0.30;;;9.50;99.90;;;;;;5074653;28;20431;-59
2021/09/30 05:13:59;;;;;;;0.70;0.30;;;9.40;99.90;;;;;;5074152;28;20415;-57
2021/09/30 05:16:27;;;;;;;0.90;0.30;;;9.20;99.90;;;;;;5074627;28;20423;-56
2021/09/30 05:18:56;;;;;;;0.40;0.30;;;9.10;99.90;;;;;;5072993;28;20423;-58
2021/09/30 05:21:25;;;;;;;0.73;0.30;;;9.20;99.90;;;;;;5072998;28;20485;-59
2021/09/30 05:23:52;;;;;;;1.50;0.30;;;9.20;99.90;;;;;;5071199;28;20809;-55
2021/09/30 05:26:20;;;;;;;0.70;0.30;;;9.80;99.90;;;;;;5072766;28;20447;-57
2021/09/30 05:28:48;;;;;;;0.70;0.30;;;9.70;99.90;;;;;;5072934;28;20477;-57
2021/09/30 05:31:15;;;;;;;0.90;0.30;;;9.60;99.90;;;;;;5072245;28;20523;-55
2021/09/30 05:33:42;;;;;;;0.90;0.30;;;9.90;99.90;;;;;;5071815;28;20427;-53
2021/09/30 05:36:10;;;;;;;0.40;0.20;;;10.20;99.90;;;;;;5071968;28;20552;-52
2021/09/30 05:38:39;;;;;;;0.50;0.30;;;10.90;99.90;;;;;;5070773;28;20420;-56
2021/09/30 05:41:07;;;;;;;1.60;0.30;;;11.10;99.90;;;;;;5071503;28;20423;-55
2021/09/30 05:43:36;;;;;;;0.50;0.30;;;10.90;99.90;;;;;;5072854;28;20430;-55
2021/09/30 05:46:05;;;;;;;0.90;0.30;;;11.20;99.90;;;;;;5073036;28;20484;-51
2021/09/30 05:48:33;;;;;;;0.40;0.20;;;11.20;99.90;;;;;;5074130;28;20815;-56
2021/09/30 05:51:00;;;;;;;1.30;0.30;;;11.20;99.90;;;;;;5071323;28;20430;-56
2021/09/30 05:53:28;;;;;;;0.47;0.30;;;10.80;99.90;;;;;;5070711;28;20712;-53
2021/09/30 05:55:57;;;;;;;0.90;0.20;;;10.70;99.90;;;;;;5072564;28;20426;-55
2021/09/30 05:58:25;;;;;;;0.40;0.20;;;10.50;99.90;;;;;;5071957;28;20483;-53
2021/09/30 06:01:02;;;;;;;0.50;0.20;;;11.00;99.90;;;;;;5073239;28;20423;-56
2021/09/30 06:09:42;;;;;;;0.90;0.30;;;10.40;99.90;;;;;;5040223;28;20418;-54
2021/09/30 06:12:14;;;;;;;0.80;0.28;;;10.00;99.90;;;;;;5076401;28;20472;-55
2021/09/30 06:14:42;;;;;;;0.90;0.30;;;9.70;99.90;;;;;;5071484;28;20423;-57
2021/09/30 06:17:10;;;;;;;0.60;0.30;;;9.70;99.90;;;;;;5076513;28;20431;-56
2021/09/30 06:19:38;;;;;;;0.50;0.20;;;9.90;99.90;;;;;;5074505;28;20503;-55
2021/09/30 06:22:08;;;;;;;0.80;0.40;;;10.10;99.90;;;;;;5067342;28;20443;-56
2021/09/30 06:24:36;;;;;;;1.60;0.30;;;10.20;99.90;;;;;;5071616;28;20422;-56
2021/09/30 06:27:05;;;;;;;0.60;0.30;;;10.20;99.90;;;;;;5055853;28;20451;-56
2021/09/30 06:29:34;;;;;;;1.42;0.28;;;10.40;99.90;;;;;;5053990;28;20421;-55
2021/09/30 06:32:02;;;;;;;1.80;0.30;;;10.40;99.90;;;;;;5071649;28;21029;-54
2021/09/30 06:34:29;;;;;;;0.73;0.40;;;10.30;99.90;;;;;;5057803;28;20432;-54
2021/09/30 06:36:56;;;;;;;0.80;0.40;;;10.30;99.90;;;;;;5073071;28;20427;-56
2021/09/30 06:39:24;;;;;;;2.92;0.30;;;10.50;99.90;;;;;;5071562;28;20427;-56
2021/09/30 06:41:52;;;;;;;0.63;0.30;;;10.60;99.90;;;;;;5070770;28;20908;-54
2021/09/30 06:44:19;;;;;;;0.60;0.30;;;10.90;99.90;;;;;;5068251;28;20435;-55
2021/09/30 06:46:48;;;;;;;0.60;0.20;;;10.90;99.90;;;;;;5070880;28;20435;-53
2021/09/30 06:49:16;;;;;;;0.60;0.30;;;10.90;99.90;;;;;;5071608;28;20702;-57
2021/09/30 06:51:43;;;;;;;0.50;0.22;;;10.90;99.90;;;;;;5073756;28;20426;-67
2021/09/30 06:54:13;;;;;;;0.80;0.30;;;10.80;99.90;;;;;;5073856;28;20508;-68
2021/09/30 06:56:42;;;;;;;0.40;0.20;;;10.70;99.90;;;;;;5072935;28;20530;-67
2021/09/30 06:59:16;;;;;;;0.60;0.20;;;10.90;99.90;;;;;;5074561;28;20427;-68
2021/09/30 07:01:43;;;;;;;0.60;0.30;;;11.10;99.90;;;;;;5072038;28;20471;-68
2021/09/30 07:04:12;;;;;;;0.40;0.20;;;11.10;99.90;;;;;;5070964;28;20427;-68
2021/09/30 07:06:40;;;;;;;0.40;0.20;;;11.30;99.90;;;;;;5071578;28;20446;-67
2021/09/30 07:09:08;;;;;;;1.00;0.30;;;11.30;99.90;;;;;;5073407;28;20423;-68
2021/09/30 07:11:36;;;;;;;0.90;0.20;;;11.50;99.90;;;;;;5073419;28;20866;-67
2021/09/30 07:14:10;;;;;;;0.50;0.20;;;11.70;99.90;;;;;;5074307;28;20423;-67
2021/09/30 07:16:41;;;;;;;1.50;0.30;;;11.90;99.90;;;;;;5075050;28;20427;-68
2021/09/30 07:19:08;;;;;;;0.80;0.20;;;11.90;99.90;;;;;;5075282;28;20428;-68
2021/09/30 07:21:41;;;;;;;0.40;0.20;;;11.90;99.90;;;;;;5075421;28;20807;-68
2021/09/30 07:24:09;;;;;;;0.70;0.30;;;11.90;99.90;;;;;;5072629;28;20443;-65
2021/09/30 07:26:38;;;;;;;0.90;0.20;;;12.10;99.90;;;;;;5073584;28;20771;-65
2021/09/30 07:29:06;;;;;;;0.60;0.20;;;12.10;99.90;;;;;;5073798;28;20793;-65
2021/09/30 07:31:34;;;;;;;1.10;0.20;;;12.20;99.90;;;;;;5073271;28;20882;-65
2021/09/30 07:34:02;;;;;;;2.50;0.30;;;12.10;99.90;;;;;;5066620;28;20914;-65
2021/09/30 07:36:29;;;;;;;0.50;0.20;;;12.20;99.90;;;;;;5049927;28;20421;-65
2021/09/30 07:38:59;;;;;;;0.50;0.20;;;12.50;99.90;;;;;;5059767;28;20942;-65
2021/09/30 07:41:26;;;;;;;1.13;0.20;;;12.70;99.90;;;;;;5056094;28;20513;-65
2021/09/30 07:43:53;;;;;;;0.68;0.20;;;12.90;99.90;;;;;;5058874;28;20438;-65
2021/09/30 07:46:21;;;;;;;1.10;0.20;;;13.30;99.90;;;;;;5072896;28;20839;-65
2021/09/30 07:48:48;;;;;;;0.90;0.30;;;13.60;99.90;;;;;;5057712;28;20433;-65
2021/09/30 07:51:16;;;;;;;0.90;0.30;;;14.00;99.90;;;;;;5070581;28;20424;-65
2021/09/30 07:53:44;;;;;;;0.80;0.30;;;14.00;99.90;;;;;;5055839;28;20769;-65
2021/09/30 07:56:13;;;;;;;0.60;0.22;;;14.00;99.90;;;;;;5064852;28;20420;-64
2021/09/30 07:58:40;;;;;;;0.60;0.30;;;13.80;99.90;;;;;;5071195;28;20442;-65
2021/09/30 08:01:08;;;;;;;0.70;0.20;;;13.50;99.90;;;;;;5072412;28;20973;-64
2021/09/30 08:03:36;;;;;;;1.00;0.22;;;13.60;99.90;;;;;;5073312;28;20436;-64
2021/09/30 08:06:04;;;;;;;0.70;0.23;;;13.50;99.90;;;;;;5073077;28;20484;-64
2021/09/30 08:08:32;;;;;;;2.20;0.28;;;13.50;99.90;;;;;;5069665;28;20484;-64
2021/09/30 08:11:00;;;;;;;0.80;0.20;;;13.40;99.90;;;;;;5069561;28;20498;-64
2021/09/30 08:13:32;;;;;;;1.15;0.20;;;13.50;99.90;;;;;;5068668;28;20444;-65
2021/09/30 08:16:04;;;;;;;0.55;0.20;;;13.50;99.90;;;;;;5069743;28;20480;-65
2021/09/30 08:18:33;;;;;;;0.50;0.20;;;13.80;99.90;;;;;;5069885;28;20424;-66
2021/09/30 08:21:05;;;;;;;0.70;0.20;;;13.80;99.90;;;;;;5071035;28;20431;-65
2021/09/30 08:23:36;;;;;;;0.68;0.20;;;14.10;99.90;;;;;;5069879;28;20520;-66
2021/09/30 08:26:07;;;;;;;0.50;0.20;;;14.50;99.90;;;;;;5070509;28;20420;-66
2021/09/30 08:28:36;;;;;;;0.40;0.20;;;14.60;99.90;;;;;;5071719;28;21088;-67
2021/09/30 08:31:05;;;;;;;3.10;0.30;;;14.40;99.90;;;;;;5071102;28;20487;-67
2021/09/30 08:33:39;;;;;;;0.55;0.20;;;14.20;99.90;;;;;;5070208;28;20435;-68
2021/09/30 08:36:12;;;;;;;0.47;0.20;;;14.10;99.90;;;;;;5071978;28;20839;-66
2021/09/30 08:38:40;;;;;;;1.17;0.20;;;14.00;99.90;;;;;;5069925;28;20847;-68
2021/09/30 08:41:09;;;;;;;0.50;0.20;;;14.30;99.90;;;;;;5069173;28;20846;-67
2021/09/30 08:43:39;;;;;;;0.90;0.20;;;14.50;99.90;;;;;;5072071;28;20754;-67
2021/09/30 08:46:09;;;;;;;0.90;0.20;;;14.30;99.90;;;;;;5072104;28;20479;-67
2021/09/30 08:48:38;;;;;;;0.50;0.20;;;14.20;99.90;;;;;;5072406;28;20431;-66
2021/09/30 08:51:11;;;;;;;0.45;0.20;;;14.10;99.90;;;;;;5072228;28;20431;-67
2021/09/30 08:53:39;;;;;;;1.15;0.20;;;14.20;99.90;;;;;;5069552;28;20669;-66
2021/09/30 08:56:09;;;;;;;1.50;0.20;;;14.50;99.90;;;;;;5070137;28;20714;-66
2021/09/30 08:58:39;;;;;;;0.50;0.20;;;14.70;99.90;;;;;;5071428;28;20427;-66
2021/09/30 09:01:09;;;;;;;0.60;0.20;;;14.90;99.90;;;;;;5070238;28;20427;-67
2021/09/30 09:03:39;;;;;;;0.50;0.20;;;15.10;99.90;;;;;;5071374;28;20427;-67
2021/09/30 09:06:08;;;;;;;0.40;0.10;;;15.10;99.90;;;;;;5068252;28;20432;-67
2021/09/30 09:08:42;;;;;;;0.80;0.20;;;15.10;99.90;;;;;;5069201;28;20428;-67
2021/09/30 09:11:10;;;;;;;0.50;0.20;;;15.20;99.90;;;;;;5073030;28;20424;-67
2021/09/30 09:13:40;;;;;;;0.80;0.20;;;15.60;99.90;;;;;;5069854;28;20438;-65
2021/09/30 09:16:09;;;;;;;1.30;0.20;;;15.20;99.90;;;;;;5066612;28;20885;-66
2021/09/30 09:18:46;;;;;;;0.40;0.20;;;14.90;99.90;;;;;;5070590;28;20447;-65
2021/09/30 09:21:20;;;;;;;0.40;0.20;;;15.00;99.90;;;;;;5072245;28;20422;-65
2021/09/30 09:23:56;;;;;;;1.40;0.20;;;15.00;99.90;;;;;;5069254;28;20989;-65
2021/09/30 09:26:29;;;;;;;0.50;0.20;;;14.80;99.90;;;;;;5069813;28;20862;-65
2021/09/30 09:29:07;;;;;;;0.63;0.30;;;15.00;99.90;;;;;;5069813;28;20431;-65
2021/09/30 09:31:39;;;;;;;0.40;0.20;;;15.30;99.90;;;;;;5064849;28;20419;-64
2021/09/30 09:34:21;;;;;;;0.90;0.20;;;15.80;99.90;;;;;;5055635;28;20428;-64
2021/09/30 09:36:56;;;;;;;0.43;0.20;;;15.80;99.90;;;;;;5066205;28;20419;-67
2021/09/30 09:39:40;;;;;;;0.60;0.20;;;15.60;99.90;;;;;;5062522;28;20441;-66
2021/09/30 09:42:14;;;;;;;0.63;0.20;;;15.60;99.90;;;;;;5066145;28;20423;-68
2021/09/30 09:45:06;;;;;;;0.80;0.20;;;16.00;99.90;;;;;;5063370;28;20882;-67
2021/09/30 09:47:47;;;;;;;1.80;0.40;;;16.20;99.90;;;;;;5070591;28;20429;-67
2021/09/30 09:50:38;;;;;;;1.15;0.70;;;16.30;99.90;;;;;;5063887;28;20659;-67
2021/09/30 09:53:11;;;;;;;0.60;0.40;;;16.30;99.90;;;;;;5060605;28;20783;-67
2021/09/30 09:55:43;;;;;;;0.57;0.10;;;16.40;99.90;;;;;;5054199;28;20425;-67
2021/09/30 09:58:18;;;;;;;0.70;0.20;;;15.90;99.90;;;;;;5054789;28;20872;-67
2021/09/30 10:01:14;;;;;;;0.90;0.10;;;15.80;99.90;;;;;;5058574;28;20816;-67
2021/09/30 10:04:11;;;;;;;0.40;0.20;;;16.00;99.90;;;;;;5057090;28;20519;-68
2021/09/30 10:06:47;;;;;;;0.40;0.20;;;16.00;99.90;;;;;;5059916;28;20726;-67
2021/09/30 10:09:30;;;;;;;0.40;0.10;;;16.60;99.90;;;;;;5059662;28;20426;-67
2021/09/30 10:12:00;;;;;;;0.60;0.10;;;16.80;99.90;;;;;;5061192;28;20479;-67
2021/09/30 10:14:37;;;;;;;0.40;0.13;;;16.70;99.90;;;;;;5065685;28;20457;-67
2021/09/30 10:17:12;;;;;;;0.77;0.20;;;16.80;99.90;;;;;;5061957;28;20942;-67
2021/09/30 10:19:57;;;;;;;0.80;0.20;;;17.30;99.90;;;;;;5060509;28;20456;-67
2021/09/30 10:22:36;;;;;;;0.43;0.20;;;17.40;99.90;;;;;;5065337;28;20538;-68
2021/09/30 10:25:39;;;;;;;0.40;0.20;;;17.70;99.90;;;;;;5064708;28;20425;-67
2021/09/30 10:28:11;;;;;;;0.82;0.20;;;17.80;99.90;;;;;;5060370;28;20737;-67
2021/09/30 10:30:54;;;;;;;0.50;0.20;;;18.00;99.90;;;;;;5066080;28;20839;-67
2021/09/30 10:33:53;;;;;;;0.50;0.20;;;18.30;99.90;;;;;;5068018;28;20428;-67
2021/09/30 10:36:53;;;;;;;0.40;0.20;;;18.40;99.90;;;;;;5068594;28;20424;-67
2021/09/30 10:39:26;;;;;;;0.77;0.10;;;17.80;99.90;;;;;;5072592;28;20423;-67
2021/09/30 10:42:03;;;;;;;1.00;0.10;;;18.00;99.90;;;;;;5073537;28;20434;-68
2021/09/30 10:44:40;;;;;;;0.77;0.20;;;17.80;99.90;;;;;;5056662;28;20592;-67
2021/09/30 10:47:22;;;;;;;0.45;0.20;;;17.60;99.90;;;;;;5072230;28;20435;-67
2021/09/30 10:49:59;;;;;;;0.60;0.20;;;17.40;99.90;;;;;;5064695;28;20433;-66
2021/09/30 10:52:35;;;;;;;1.40;0.30;;;17.80;99.90;;;;;;5071450;28;20498;-67
2021/09/30 10:55:40;;;;;;;0.60;0.20;;;18.20;99.90;;;;;;5073317;28;20477;-68
2021/09/30 11:01:30;;;;;;;0.40;0.20;;;17.90;99.90;;;;;;5071825;28;20431;-69
2021/09/30 11:04:02;;;;;;;1.10;0.20;;;17.80;99.90;;;;;;5068499;28;20430;-69
2021/09/30 11:06:39;;;;;;;1.60;0.10;;;17.70;99.90;;;;;;5074295;28;20435;-67
2021/09/30 11:09:18;;;;;;;0.80;0.10;;;17.40;99.90;;;;;;5065287;28;20427;-67
2021/09/30 11:11:53;;;;;;;0.40;0.20;;;17.50;99.90;;;;;;5071882;28;20431;-66
2021/09/30 11:14:28;;;;;;;0.40;0.20;;;17.90;99.90;;;;;;5070540;28;20508;-67
2021/09/30 11:16:58;;;;;;;0.80;0.20;;;17.40;99.90;;;;;;5073430;28;20526;-67
2021/09/30 11:19:38;;;;;;;0.40;0.10;;;17.60;99.90;;;;;;5066158;28;20434;-67
2021/09/30 11:22:12;;;;;;;0.30;0.10;;;17.70;99.90;;;;;;5071880;28;20747;-68
2021/09/30 11:24:56;;;;;;;1.10;0.20;;;17.90;99.90;;;;;;5071094;28;20424;-66
2021/09/30 11:27:37;;;;;;;0.70;0.17;;;17.90;99.90;;;;;;5058098;28;20510;-67
2021/09/30 11:30:25;;;;;;;0.40;0.20;;;17.50;99.90;;;;;;5073698;28;20427;-66
2021/09/30 11:33:02;;;;;;;0.50;0.20;;;17.90;99.90;;;;;;5071028;28;20525;-67
2021/09/30 11:35:37;;;;;;;0.90;0.20;;;18.30;99.90;;;;;;5072430;28;20811;-67
2021/09/30 11:38:17;;;;;;;0.50;0.20;;;18.10;99.90;;;;;;5065197;28;20523;-67
2021/09/30 11:40:50;;;;;;;0.40;0.20;;;18.20;99.90;;;;;;5073099;28;20508;-67
2021/09/30 11:43:27;;;;;;;0.60;0.10;;;18.30;99.90;;;;;;5070986;28;21064;-67
2021/09/30 11:45:59;;;;;;;0.50;0.20;;;18.40;97.30;;;;;;5071578;28;21922;-67
2021/09/30 11:48:31;;;;;;;0.50;0.20;;;18.50;99.90;;;;;;5073245;28;20439;-67
2021/09/30 11:51:15;;;;;;;0.50;0.20;;;17.60;97.50;;;;;;5072728;28;20609;-67
2021/09/30 11:53:58;;;;;;;1.70;0.20;;;17.40;99.90;;;;;;5071407;28;20870;-68
2021/09/30 11:56:30;;;;;;;0.50;0.20;;;17.90;99.90;;;;;;5072601;28;20427;-67
2021/09/30 11:59:22;;;;;;;0.40;0.20;;;18.20;99.90;;;;;;5073541;28;20956;-68
2021/09/30 12:01:58;;;;;;;0.50;0.20;;;17.80;99.90;;;;;;5071992;28;20483;-67
2021/09/30 12:04:37;;;;;;;0.50;0.20;;;17.70;99.90;;;;;;5073116;28;20431;-67
2021/09/30 12:07:06;;;;;;;0.40;0.20;;;17.80;99.90;;;;;;5071190;28;20774;-67
2021/09/30 12:09:37;;;;;;;0.40;0.17;;;18.10;99.90;;;;;;5074137;28;20767;-67
2021/09/30 12:12:09;;;;;;;0.40;0.20;;;18.60;99.90;;;;;;5072705;28;20514;-67
2021/09/30 12:14:44;;;;;;;0.50;0.15;;;18.40;99.10;;;;;;5071561;28;20439;-67
2021/09/30 12:17:14;;;;;;;0.60;0.20;;;18.00;99.90;;;;;;5072813;28;20431;-67
2021/09/30 12:19:53;;;;;;;0.30;0.10;;;18.40;99.90;;;;;;5070914;28;20427;-68
2021/09/30 12:22:22;;;;;;;0.40;0.10;;;18.60;99.90;;;;;;5072701;28;20477;-67
2021/09/30 12:24:55;;;;;;;0.40;0.20;;;18.30;99.90;;;;;;5072841;28;20715;-67
2021/09/30 12:27:35;;;;;;;0.60;0.20;;;18.40;99.90;;;;;;5070802;28;20431;-66
2021/09/30 12:30:09;;;;;;;1.10;0.20;;;18.70;99.90;;;;;;5071597;28;20432;-66
2021/09/30 12:32:41;;;;;;;0.40;0.20;;;18.90;99.90;;;;;;5072317;28;20430;-64
2021/09/30 12:35:11;;;;;;;0.40;0.10;;;18.60;98.00;;;;;;5072569;28;20859;-64
2021/09/30 12:37:41;;;;;;;0.70;0.20;;;18.60;99.90;;;;;;5073974;28;20510;-64
2021/09/30 12:40:16;;;;;;;0.70;0.20;;;18.80;99.90;;;;;;5074792;28;20431;-65
2021/09/30 12:42:59;;;;;;;0.50;0.20;;;18.60;99.30;;;;;;5072719;28;20485;-64
2021/09/30 12:45:28;;;;;;;0.32;0.10;;;18.10;99.90;;;;;;5073102;28;20732;-65
2021/09/30 12:48:05;;;;;;;0.40;0.17;;;18.00;99.90;;;;;;5071907;28;20435;-66
2021/09/30 12:50:41;;;;;;;0.40;0.20;;;18.20;99.30;;;;;;5069166;28;20428;-66
2021/09/30 12:53:10;;;;;;;0.43;0.20;;;18.10;97.70;;;;;;5073585;28;20514;-65
2021/09/30 12:55:42;;;;;;;0.30;0.10;;;17.80;97.50;;;;;;5073914;28;20484;-67
2021/09/30 12:58:28;;;;;;;0.80;0.17;;;17.50;98.70;;;;;;5074692;28;20423;-66
2021/09/30 13:00:57;;;;;;;0.40;0.20;;;17.80;99.50;;;;;;5074409;28;20545;-67
2021/09/30 13:03:25;;;;;;;0.50;0.20;;;18.00;98.20;;;;;;5074082;28;20561;-67
2021/09/30 13:05:55;;;;;;;0.70;0.20;;;17.80;99.10;;;;;;5074039;28;20429;-67
2021/09/30 13:08:41;;;;;;;0.30;0.10;;;17.70;99.00;;;;;;5072973;28;20442;-67
2021/09/30 13:11:29;;;;;;;0.35;0.13;;;17.40;98.40;;;;;;5074169;28;20430;-66
2021/09/30 13:14:20;;;;;;;0.60;0.20;;;17.50;99.60;;;;;;5073852;28;20438;-67
2021/09/30 13:16:54;;;;;;;0.50;0.20;;;17.90;99.70;;;;;;5074425;28;20473;-67
2021/09/30 13:19:42;;;;;;;0.50;0.20;;;18.00;98.20;;;;;;5073981;28;20431;-66
2021/09/30 13:22:19;;;;;;;0.70;0.20;;;17.80;98.00;;;;;;5074214;28;20415;-67
2021/09/30 13:24:49;;;;;;;0.70;0.10;;;17.60;96.50;;;;;;5063885;28;20427;-67
2021/09/30 13:27:20;;;;;;;0.50;0.10;;;17.20;97.70;;;;;;5059071;28;20437;-68
2021/09/30 13:29:49;;;;;;;0.40;0.20;;;17.10;97.00;;;;;;5051077;28;20432;-66
2021/09/30 13:32:19;;;;;;;0.40;0.10;;;17.00;97.80;;;;;;5069444;28;20423;-67
2021/09/30 13:34:47;;;;;;;0.40;0.10;;;17.30;99.90;;;;;;5069404;28;20512;-67
2021/09/30 13:37:15;;;;;;;0.40;0.17;;;17.20;99.60;;;;;;5071997;28;20419;-67
2021/09/30 13:39:42;;;;;;;0.30;0.20;;;17.10;99.40;;;;;;5071500;28;20847;-67
2021/09/30 13:42:11;;;;;;;0.47;0.20;;;17.10;98.00;;;;;;5071319;28;20419;-66
2021/09/30 13:44:43;;;;;;;0.40;0.20;;;16.90;97.80;;;;;;5067570;28;20472;-66
2021/09/30 13:47:13;;;;;;;0.90;0.20;;;17.00;98.60;;;;;;5053375;28;20429;-70
2021/09/30 13:49:45;;;;;;;1.70;0.20;;;16.80;99.90;;;;;;5050761;28;20428;-66
2021/09/30 13:52:16;;;;;;;0.50;0.20;;;17.00;99.90;;;;;;5052268;28;20835;-66
2021/09/30 13:54:45;;;;;;;1.00;0.20;;;17.00;99.60;;;;;;5050689;28;21109;-63
2021/09/30 13:57:13;;;;;;;1.90;0.20;;;17.00;97.50;;;;;;5051880;28;20499;-65
2021/09/30 13:59:43;;;;;;;1.70;0.20;;;16.80;98.30;;;;;;5061080;28;20751;-65
2021/09/30 14:02:12;;;;;;;0.50;0.30;;;16.80;98.50;;;;;;5060533;28;20425;-64
2021/09/30 14:04:41;;;;;;;0.55;0.20;;;16.90;97.80;;;;;;5057034;28;20413;-64
2021/09/30 14:07:12;;;;;;;0.40;0.20;;;16.90;98.80;;;;;;5069110;28;20431;-64
2021/09/30 14:09:39;;;;;;;0.70;0.20;;;16.70;98.60;;;;;;5072417;28;20420;-64
2021/09/30 14:12:11;;;;;;;0.50;0.20;;;16.60;99.00;;;;;;5070558;28;20439;-65
2021/09/30 14:14:42;;;;;;;0.88;0.40;;;16.70;99.10;;;;;;5058784;28;20740;-64
2021/09/30 14:17:09;;;;;;;0.50;0.20;;;16.80;98.40;;;;;;5052106;28;20441;-65
2021/09/30 14:19:39;;;;;;;0.40;0.20;;;17.00;99.90;;;;;;5052288;28;20421;-65
2021/09/30 14:22:06;;;;;;;0.40;0.20;;;17.40;99.90;;;;;;5052435;28;20436;-64
2021/09/30 14:24:34;;;;;;;0.50;0.20;;;17.60;99.90;;;;;;5054649;28;20777;-64
2021/09/30 14:27:07;;;;;;;0.40;0.20;;;17.60;99.90;;;;;;5069652;28;20424;-63
2021/09/30 14:29:39;;;;;;;0.60;0.10;;;17.90;99.90;;;;;;5072382;28;20525;-64
2021/09/30 14:32:09;;;;;;;0.40;0.30;;;17.80;99.90;;;;;;5068761;28;20433;-64
2021/09/30 14:34:39;;;;;;;0.50;0.15;;;18.00;99.30;;;;;;5063202;28;20427;-64
2021/09/30 14:37:10;;;;;;;0.50;0.20;;;18.10;99.90;;;;;;5056274;28;20512;-64
2021/09/30 14:39:40;;;;;;;0.60;0.22;;;18.20;99.90;;;;;;5056110;28;20491;-64
2021/09/30 14:42:13;;;;;;;0.40;0.20;;;18.30;99.90;;;;;;5056525;28;20425;-64
2021/09/30 14:44:41;;;;;;;0.50;0.20;;;18.30;99.90;;;;;;5060425;28;20821;-64
2021/09/30 14:47:11;;;;;;;0.50;0.10;;;18.20;97.40;;;;;;5075412;28;20419;-65
2021/09/30 14:49:40;;;;;;;1.45;0.20;;;17.80;97.30;;;;;;5071074;28;20439;-64
2021/09/30 14:52:14;;;;;;;0.30;0.10;;;17.30;99.80;;;;;;5060071;28;20736;-64
2021/09/30 14:54:44;;;;;;;0.50;0.17;;;17.20;98.60;;;;;;5050320;28;21046;-64
2021/09/30 14:57:17;;;;;;;0.50;0.30;;;17.00;99.90;;;;;;5052976;28;20448;-64
2021/09/30 14:59:44;;;;;;;0.47;0.20;;;16.90;98.60;;;;;;5066410;28;20426;-64
2021/09/30 15:02:13;;;;;;;0.40;0.10;;;16.80;99.90;;;;;;5067512;28;20493;-64
2021/09/30 15:04:44;;;;;;;0.80;0.20;;;16.70;99.80;;;;;;5075429;28;20704;-63
2021/09/30 15:07:14;;;;;;;0.50;0.10;;;16.80;99.90;;;;;;5065384;28;20532;-63
2021/09/30 15:09:41;;;;;;;0.40;0.20;;;17.00;99.90;;;;;;5054984;28;20468;-63
2021/09/30 15:12:09;;;;;;;0.50;0.23;;;17.00;99.10;;;;;;5056234;28;20425;-62
2021/09/30 15:14:36;;;;;;;0.40;0.20;;;17.00;99.90;;;;;;5071405;28;20435;-62
2021/09/30 15:17:11;;;;;;;0.50;0.20;;;16.90;99.90;;;;;;5074258;28;20480;-63
2021/09/30 15:19:50;;;;;;;1.20;0.20;;;17.00;99.80;;;;;;5074754;28;20420;-63
2021/09/30 15:22:17;;;;;;;0.90;0.20;;;16.80;98.50;;;;;;5057644;28;20429;-63
2021/09/30 15:24:45;;;;;;;0.40;0.10;;;16.60;98.90;;;;;;5058133;28;20434;-63
2021/09/30 15:27:15;;;;;;;0.40;0.10;;;16.60;99.90;;;;;;5071244;28;20430;-63
2021/09/30 15:29:45;;;;;;;0.43;0.20;;;16.80;99.90;;;;;;5072609;28;20865;-63
2021/09/30 15:32:12;;;;;;;0.50;0.20;;;16.80;99.90;;;;;;5061460;28;20425;-63
2021/09/30 15:34:44;;;;;;;1.30;0.20;;;16.90;99.90;;;;;;5052719;28;20429;-63
2021/09/30 15:37:15;;;;;;;0.32;0.10;;;16.90;99.70;;;;;;5053766;28;20848;-64